Time;durP1;ratioP1;P1;durP2;ratioP2;P2;SDS_P1;SDS_P2;PMS_P1;PMS_P2;Temp;Humidity;BMP_temperature;BMP_pressure;BME280_temperature;BME280_humidity;BME280_pressure;Samples;Min_cycle;Max_cycle;Signal;HPM_P1;HPM_P2
2022/01/06 00:00:55;;;;;;;16.13;8.30;;;4.30;99.90;;;;;;5075750;28;20112;-63
2022/01/06 00:03:21;;;;;;;15.93;7.03;;;4.20;99.90;;;;;;5076283;28;20173;-63
2022/01/06 00:05:46;;;;;;;15.98;7.88;;;4.20;99.90;;;;;;5076251;28;20457;-63
2022/01/06 00:08:14;;;;;;;25.27;9.05;;;4.20;99.90;;;;;;5076454;28;20033;-63
2022/01/06 00:10:40;;;;;;;17.38;8.45;;;4.30;99.90;;;;;;5076140;28;20056;-63
2022/01/06 00:13:13;;;;;;;18.77;8.13;;;4.30;99.90;;;;;;5075297;28;20048;-63
2022/01/06 00:23:44;;;;;;;;;;;;;;;;;;;;;
2022/01/06 00:26:01;;;;;;;18.95;8.10;;;4.20;99.90;;;;;;5076107;28;20029;-63
2022/01/06 00:28:28;;;;;;;14.85;7.78;;;4.20;99.90;;;;;;5075834;28;20051;-63
2022/01/06 00:30:53;;;;;;;23.52;7.47;;;4.20;99.90;;;;;;5074551;28;20035;-63
2022/01/06 00:33:20;;;;;;;18.85;7.10;;;4.20;99.90;;;;;;5075463;28;20361;-61
2022/01/06 00:35:46;;;;;;;21.13;8.25;;;4.10;99.90;;;;;;5074829;28;20024;-63
2022/01/06 00:38:12;;;;;;;24.63;7.97;;;4.10;99.90;;;;;;5075721;28;20081;-64
2022/01/06 00:40:38;;;;;;;20.20;7.45;;;4.10;99.90;;;;;;5075954;28;20040;-61
2022/01/06 00:43:06;;;;;;;20.60;7.60;;;4.10;99.90;;;;;;5075350;28;20013;-61
2022/01/06 00:45:35;;;;;;;23.85;7.47;;;4.10;99.90;;;;;;5075694;28;20077;-61
2022/01/06 00:48:02;;;;;;;18.67;7.95;;;4.10;99.90;;;;;;5075351;28;20453;-62
2022/01/06 00:50:30;;;;;;;19.50;6.70;;;4.00;99.90;;;;;;5075316;28;20025;-62
2022/01/06 00:52:57;;;;;;;14.55;6.55;;;4.10;99.90;;;;;;5075325;28;20027;-63
2022/01/06 00:55:22;;;;;;;11.88;5.88;;;4.00;99.90;;;;;;5075346;28;20034;-61
2022/01/06 00:57:55;;;;;;;12.80;5.35;;;3.90;99.90;;;;;;5075285;28;20429;-62
2022/01/06 01:00:23;;;;;;;18.38;6.63;;;4.00;99.90;;;;;;5075141;28;20017;-62
2022/01/06 01:02:49;;;;;;;19.25;7.25;;;4.00;99.90;;;;;;5075122;28;20052;-62
2022/01/06 01:05:17;;;;;;;16.55;6.47;;;4.10;99.90;;;;;;5074944;28;20036;-62
2022/01/06 01:07:45;;;;;;;13.18;6.15;;;4.10;99.90;;;;;;5074785;28;20028;-62
2022/01/06 01:10:12;;;;;;;16.33;5.93;;;4.10;99.90;;;;;;5074860;28;20020;-61
2022/01/06 01:12:37;;;;;;;22.48;6.38;;;4.10;99.90;;;;;;5074726;28;20052;-62
2022/01/06 01:15:08;;;;;;;18.80;6.47;;;4.10;99.90;;;;;;5074773;28;20453;-62
2022/01/06 01:17:34;;;;;;;22.93;6.87;;;4.10;99.90;;;;;;5074635;28;20155;-61
2022/01/06 01:20:03;;;;;;;18.48;6.68;;;4.20;99.90;;;;;;5074751;28;20696;-64
2022/01/06 01:22:29;;;;;;;20.35;5.32;;;4.10;99.90;;;;;;5074512;28;20025;-62
2022/01/06 01:24:59;;;;;;;13.88;5.38;;;4.10;99.90;;;;;;5074578;28;20055;-62
2022/01/06 01:27:27;;;;;;;16.00;6.00;;;4.10;99.90;;;;;;5074536;28;20036;-61
2022/01/06 01:30:03;;;;;;;16.25;5.65;;;4.10;99.90;;;;;;5074407;28;20025;-62
2022/01/06 01:32:35;;;;;;;12.10;4.53;;;4.10;99.90;;;;;;5073403;28;20562;-61
2022/01/06 01:35:02;;;;;;;20.23;4.85;;;4.10;99.90;;;;;;5074394;28;20059;-61
2022/01/06 01:37:31;;;;;;;26.75;5.50;;;4.00;99.90;;;;;;5074416;28;20021;-62
2022/01/06 01:39:58;;;;;;;15.20;4.13;;;4.10;99.90;;;;;;5074201;28;20025;-62
2022/01/06 01:42:27;;;;;;;14.07;4.53;;;4.00;99.90;;;;;;5074284;28;20025;-61
2022/01/06 01:44:56;;;;;;;14.00;4.47;;;4.00;99.90;;;;;;5073839;28;20078;-61
2022/01/06 01:47:30;;;;;;;15.20;4.93;;;4.00;99.90;;;;;;5074335;28;20025;-62
2022/01/06 01:50:21;;;;;;;21.10;6.35;;;4.00;99.90;;;;;;5074519;28;20048;-61
2022/01/06 01:52:50;;;;;;;19.65;4.78;;;4.00;99.90;;;;;;5073599;28;20036;-61
2022/01/06 01:55:22;;;;;;;20.05;5.22;;;3.90;99.90;;;;;;5074219;28;20044;-63
2022/01/06 01:57:48;;;;;;;14.35;4.03;;;3.90;99.90;;;;;;5073113;28;20029;-62
2022/01/06 02:00:21;;;;;;;20.27;5.53;;;3.90;99.90;;;;;;5073193;28;20024;-62
2022/01/06 02:02:49;;;;;;;17.83;4.63;;;3.90;99.90;;;;;;5074059;28;20036;-62
2022/01/06 02:05:24;;;;;;;19.38;4.07;;;3.80;99.90;;;;;;5072977;28;20098;-62
2022/01/06 02:07:50;;;;;;;23.05;5.38;;;4.00;99.90;;;;;;5074023;28;20100;-62
2022/01/06 02:10:15;;;;;;;20.67;4.53;;;3.80;99.90;;;;;;5073974;28;20052;-62
2022/01/06 02:12:44;;;;;;;17.42;3.97;;;3.80;99.90;;;;;;5073198;28;20106;-63
2022/01/06 02:15:15;;;;;;;15.15;4.07;;;3.80;99.90;;;;;;5074754;28;20377;-68
2022/01/06 02:17:44;;;;;;;12.40;3.45;;;3.80;99.90;;;;;;5074324;28;20152;-68
2022/01/06 02:20:12;;;;;;;18.95;4.07;;;3.80;99.90;;;;;;5074410;28;20390;-68
2022/01/06 02:22:38;;;;;;;12.15;3.88;;;3.80;99.90;;;;;;5074178;28;20020;-68
2022/01/06 02:25:18;;;;;;;14.35;4.55;;;3.80;99.90;;;;;;5074084;28;20095;-67
2022/01/06 02:27:47;;;;;;;16.33;4.25;;;3.80;99.90;;;;;;5074148;28;20029;-68
2022/01/06 02:30:13;;;;;;;15.88;4.15;;;3.90;99.90;;;;;;5074137;28;20047;-68
2022/01/06 02:32:43;;;;;;;14.60;3.70;;;3.70;99.90;;;;;;5073978;28;20021;-68
2022/01/06 02:35:11;;;;;;;13.75;3.75;;;3.80;99.90;;;;;;5074041;28;20315;-68
2022/01/06 02:37:39;;;;;;;13.88;3.55;;;3.80;99.90;;;;;;5074026;28;20035;-68
2022/01/06 02:40:14;;;;;;;19.05;3.78;;;3.80;99.90;;;;;;5074088;28;20059;-68
2022/01/06 02:42:44;;;;;;;15.93;4.00;;;3.80;99.90;;;;;;5074038;28;20409;-68
2022/01/06 02:45:11;;;;;;;14.35;3.33;;;3.80;99.90;;;;;;5074041;28;20078;-68
2022/01/06 02:47:39;;;;;;;20.80;5.18;;;3.80;99.90;;;;;;5073864;28;20029;-68
2022/01/06 02:50:06;;;;;;;12.95;4.03;;;3.80;99.90;;;;;;5073080;28;20025;-68
2022/01/06 02:52:34;;;;;;;16.15;3.60;;;3.80;99.90;;;;;;5073961;28;20020;-67
2022/01/06 02:55:01;;;;;;;17.38;3.63;;;3.80;99.90;;;;;;5075313;28;20043;-68
2022/01/06 02:57:29;;;;;;;13.20;3.40;;;3.80;99.90;;;;;;5077874;28;20469;-68
2022/01/06 02:59:54;;;;;;;12.45;3.67;;;3.80;99.90;;;;;;5077804;28;20453;-67
2022/01/06 03:02:22;;;;;;;10.77;3.28;;;3.80;99.90;;;;;;5076943;28;20025;-68
2022/01/06 03:04:47;;;;;;;16.33;4.45;;;3.80;99.90;;;;;;5077721;28;20037;-68
2022/01/06 03:07:13;;;;;;;13.98;3.20;;;3.80;99.90;;;;;;5077675;28;20457;-68
2022/01/06 03:09:43;;;;;;;10.82;3.40;;;3.90;99.90;;;;;;5077724;28;20024;-68
2022/01/06 03:12:20;;;;;;;6.85;2.58;;;3.90;99.90;;;;;;5076579;28;20417;-67
2022/01/06 03:14:46;;;;;;;12.88;3.78;;;3.80;99.90;;;;;;5077571;28;20074;-68
2022/01/06 03:17:11;;;;;;;12.85;3.78;;;3.90;99.90;;;;;;5076766;28;20033;-68
2022/01/06 03:19:39;;;;;;;17.30;4.93;;;3.80;99.90;;;;;;5077530;28;20021;-68
2022/01/06 03:22:05;;;;;;;14.77;4.47;;;3.90;99.90;;;;;;5077448;28;20120;-67
2022/01/06 03:24:31;;;;;;;10.18;3.70;;;4.00;99.90;;;;;;5077478;28;20059;-67
2022/01/06 03:26:59;;;;;;;12.55;3.45;;;3.90;99.90;;;;;;5077271;28;20056;-68
2022/01/06 03:29:24;;;;;;;18.15;4.80;;;4.00;99.90;;;;;;5077221;28;20032;-68
2022/01/06 03:31:50;;;;;;;14.35;3.40;;;4.00;99.90;;;;;;5077280;28;20108;-68
2022/01/06 03:34:16;;;;;;;10.57;3.70;;;4.00;99.90;;;;;;5077050;28;20016;-68
2022/01/06 03:36:42;;;;;;;10.73;3.33;;;4.00;99.90;;;;;;5077222;28;20097;-68
2022/01/06 03:39:08;;;;;;;16.33;4.60;;;4.00;99.90;;;;;;5077361;28;20108;-68
2022/01/06 03:41:33;;;;;;;13.77;4.18;;;4.00;99.90;;;;;;5077354;28;20448;-68
2022/01/06 03:43:59;;;;;;;17.27;4.22;;;4.00;99.90;;;;;;5077218;28;20323;-68
2022/01/06 03:46:25;;;;;;;17.60;3.88;;;4.00;99.90;;;;;;5076837;28;20033;-67
2022/01/06 03:48:51;;;;;;;18.60;4.35;;;4.00;99.90;;;;;;5076981;28;20111;-68
2022/01/06 03:51:23;;;;;;;14.85;4.63;;;4.00;99.90;;;;;;5076859;28;20067;-68
2022/01/06 03:53:51;;;;;;;15.48;4.25;;;4.00;99.90;;;;;;5076912;28;20148;-68
2022/01/06 03:56:17;;;;;;;22.25;4.32;;;4.00;99.90;;;;;;5076674;28;20390;-68
2022/01/06 03:58:45;;;;;;;11.00;3.70;;;4.00;99.90;;;;;;5076885;28;20453;-68
2022/01/06 04:01:11;;;;;;;12.23;3.45;;;4.00;99.90;;;;;;5076699;28;20166;-67
2022/01/06 04:03:37;;;;;;;18.08;5.25;;;4.00;99.90;;;;;;5076479;28;20051;-68
2022/01/06 04:06:06;;;;;;;15.63;3.72;;;3.90;99.90;;;;;;5075651;28;20020;-68
2022/01/06 04:08:34;;;;;;;20.98;4.00;;;4.00;99.90;;;;;;5076592;28;20051;-68
2022/01/06 04:10:59;;;;;;;15.55;3.97;;;4.00;99.90;;;;;;5076564;28;20481;-68
2022/01/06 04:13:25;;;;;;;18.27;4.40;;;4.00;99.90;;;;;;5076404;28;20032;-67
2022/01/06 04:15:53;;;;;;;18.05;3.85;;;4.20;99.90;;;;;;5076502;28;20052;-67
2022/01/06 04:18:21;;;;;;;13.63;4.05;;;4.00;99.90;;;;;;5076535;28;20059;-68
2022/01/06 04:20:51;;;;;;;17.83;3.15;;;4.00;99.90;;;;;;5076429;28;20012;-68
2022/01/06 04:23:17;;;;;;;12.65;2.80;;;4.00;99.90;;;;;;5075601;28;20055;-68
2022/01/06 04:25:47;;;;;;;13.35;4.47;;;3.90;99.90;;;;;;5076127;28;20024;-68
2022/01/06 04:28:15;;;;;;;10.23;3.28;;;4.00;99.90;;;;;;5076200;28;20020;-68
2022/01/06 04:30:41;;;;;;;8.55;3.40;;;3.90;99.90;;;;;;5076139;28;20025;-68
2022/01/06 04:33:06;;;;;;;9.55;3.47;;;3.90;99.90;;;;;;5076156;28;20107;-67
2022/01/06 04:35:34;;;;;;;14.70;3.53;;;3.90;99.90;;;;;;5076042;28;20016;-68
2022/01/06 04:38:00;;;;;;;16.80;3.58;;;3.90;99.90;;;;;;5076008;28;20361;-68
2022/01/06 04:40:28;;;;;;;13.23;3.35;;;3.90;99.90;;;;;;5075054;28;20041;-67
2022/01/06 04:42:53;;;;;;;12.98;3.20;;;3.80;99.90;;;;;;5075887;28;20020;-68
2022/01/06 04:45:19;;;;;;;15.82;3.20;;;3.80;99.90;;;;;;5075851;28;20480;-67
2022/01/06 04:47:44;;;;;;;19.08;4.43;;;3.80;99.90;;;;;;5075720;28;20039;-68
2022/01/06 04:50:10;;;;;;;16.00;3.70;;;3.80;99.90;;;;;;5075833;28;20540;-67
2022/01/06 04:52:36;;;;;;;14.68;3.75;;;3.80;99.90;;;;;;5075672;28;20025;-68
2022/01/06 04:55:01;;;;;;;11.05;2.88;;;3.80;99.90;;;;;;5075642;28;20032;-67
2022/01/06 04:57:27;;;;;;;11.10;3.63;;;3.80;99.90;;;;;;5075583;28;20033;-68
2022/01/06 04:59:55;;;;;;;15.63;3.50;;;3.80;99.90;;;;;;5075479;28;20036;-68
2022/01/06 05:02:20;;;;;;;14.57;3.35;;;3.80;99.90;;;;;;5074679;28;20468;-68
2022/01/06 05:04:49;;;;;;;14.25;3.65;;;3.80;99.90;;;;;;5075346;28;20051;-68
2022/01/06 05:07:16;;;;;;;12.70;3.38;;;3.70;99.90;;;;;;5075347;28;20021;-68
2022/01/06 05:09:42;;;;;;;16.55;4.95;;;3.70;99.90;;;;;;5075391;28;20020;-68
2022/01/06 05:12:08;;;;;;;17.10;4.55;;;3.70;99.90;;;;;;5075324;28;20086;-68
2022/01/06 05:14:34;;;;;;;14.27;3.08;;;3.70;99.90;;;;;;5074304;28;20074;-68
2022/01/06 05:17:00;;;;;;;24.85;3.58;;;3.60;99.90;;;;;;5075106;28;20353;-67
2022/01/06 05:19:26;;;;;;;15.55;3.67;;;3.60;99.90;;;;;;5074070;28;20048;-68
2022/01/06 05:21:55;;;;;;;12.88;4.35;;;3.70;99.90;;;;;;5074972;28;20024;-68
2022/01/06 05:24:24;;;;;;;20.45;4.75;;;3.70;99.90;;;;;;5075186;28;20458;-68
2022/01/06 05:26:54;;;;;;;20.73;3.75;;;3.60;99.90;;;;;;5075013;28;20040;-68
2022/01/06 05:29:19;;;;;;;23.13;3.90;;;3.60;99.90;;;;;;5074945;28;20025;-68
2022/01/06 05:31:45;;;;;;;16.15;3.58;;;3.60;99.90;;;;;;5073974;28;20353;-67
2022/01/06 05:34:11;;;;;;;12.80;5.00;;;3.60;99.90;;;;;;5074846;28;20025;-68
2022/01/06 05:36:37;;;;;;;16.48;4.28;;;3.40;99.90;;;;;;5074829;28;20526;-68
2022/01/06 05:39:03;;;;;;;13.90;3.28;;;3.50;99.90;;;;;;5074721;28;20100;-68
2022/01/06 05:41:29;;;;;;;11.05;4.07;;;3.50;99.90;;;;;;5074789;28;20021;-68
2022/01/06 05:43:54;;;;;;;18.85;3.95;;;3.50;99.90;;;;;;5074627;28;20051;-67
2022/01/06 05:46:20;;;;;;;15.48;4.03;;;3.40;99.90;;;;;;5074596;28;20025;-68
2022/01/06 05:48:46;;;;;;;17.85;4.00;;;3.40;99.90;;;;;;5074644;28;20485;-67
2022/01/06 05:51:12;;;;;;;21.65;5.10;;;3.40;99.90;;;;;;5073543;28;20027;-68
2022/01/06 05:53:38;;;;;;;20.80;4.30;;;3.40;99.90;;;;;;5073519;28;20035;-67
2022/01/06 05:56:04;;;;;;;15.40;3.70;;;3.40;99.90;;;;;;5074336;28;20405;-68
2022/01/06 05:58:32;;;;;;;24.58;4.20;;;3.40;99.90;;;;;;5074454;28;20331;-68
2022/01/06 06:00:58;;;;;;;16.33;4.28;;;3.30;99.90;;;;;;5074508;28;20025;-68
2022/01/06 06:03:27;;;;;;;16.58;4.35;;;3.30;99.90;;;;;;5074384;28;20035;-68
2022/01/06 06:05:54;;;;;;;17.15;4.43;;;3.30;99.90;;;;;;5074467;28;20323;-68
2022/01/06 06:08:20;;;;;;;15.68;4.30;;;3.30;99.90;;;;;;5074329;28;20024;-68
2022/01/06 06:10:47;;;;;;;12.52;4.97;;;3.30;99.90;;;;;;5073487;28;20031;-67
2022/01/06 06:13:13;;;;;;;14.27;4.88;;;3.40;99.90;;;;;;5074244;28;20032;-67
2022/01/06 06:15:39;;;;;;;13.45;3.92;;;3.40;99.90;;;;;;5074341;28;20091;-68
2022/01/06 06:18:06;;;;;;;17.33;4.25;;;3.30;99.90;;;;;;5074293;28;20028;-68
2022/01/06 06:20:32;;;;;;;15.63;4.13;;;3.40;99.90;;;;;;5073335;28;20017;-68
2022/01/06 06:23:00;;;;;;;12.05;3.35;;;3.40;99.90;;;;;;5074237;28;20096;-68
2022/01/06 06:25:26;;;;;;;11.25;3.95;;;3.50;99.90;;;;;;5074145;28;20021;-68
2022/01/06 06:27:54;;;;;;;15.35;4.38;;;3.30;99.90;;;;;;5074086;28;20333;-68
2022/01/06 06:30:20;;;;;;;18.70;5.05;;;3.20;99.90;;;;;;5073607;28;20028;-68
2022/01/06 06:32:50;;;;;;;20.00;5.38;;;3.20;99.90;;;;;;5074144;28;20028;-67
2022/01/06 06:35:16;;;;;;;25.42;4.53;;;3.30;99.90;;;;;;5074116;28;20372;-68
2022/01/06 06:37:42;;;;;;;16.92;4.60;;;3.20;99.90;;;;;;5074119;28;20043;-68
2022/01/06 06:40:12;;;;;;;19.27;4.65;;;3.20;99.90;;;;;;5074056;28;20104;-68
2022/01/06 06:42:42;;;;;;;15.85;4.55;;;3.20;99.90;;;;;;5073954;28;20039;-67
2022/01/06 06:45:08;;;;;;;12.88;4.18;;;3.20;99.90;;;;;;5074107;28;20404;-67
2022/01/06 06:47:34;;;;;;;24.90;7.55;;;3.20;99.90;;;;;;5072836;28;20029;-66
2022/01/06 06:50:00;;;;;;;18.55;4.85;;;3.20;99.90;;;;;;5073972;28;20027;-67
2022/01/06 06:52:26;;;;;;;18.73;5.45;;;3.20;99.90;;;;;;5073919;28;20388;-68
2022/01/06 06:54:53;;;;;;;18.42;4.60;;;3.20;99.90;;;;;;5073938;28;20511;-68
2022/01/06 06:57:20;;;;;;;25.77;5.68;;;3.20;99.90;;;;;;5073861;28;20033;-67
2022/01/06 06:59:48;;;;;;;20.67;5.57;;;3.30;99.90;;;;;;5073826;28;20104;-68
2022/01/06 07:02:14;;;;;;;18.83;5.43;;;3.10;99.90;;;;;;5073845;28;20108;-67
2022/01/06 07:04:39;;;;;;;16.02;5.97;;;3.00;99.90;;;;;;5073757;28;20076;-68
2022/01/06 07:07:05;;;;;;;16.77;5.40;;;3.00;99.90;;;;;;5073728;28;20028;-68
2022/01/06 07:09:31;;;;;;;19.15;5.65;;;3.00;99.90;;;;;;5072631;28;20021;-67
2022/01/06 07:11:56;;;;;;;18.52;7.18;;;3.00;99.90;;;;;;5073774;28;20020;-68
2022/01/06 07:14:22;;;;;;;15.48;5.97;;;3.00;99.90;;;;;;5073748;28;20040;-68
2022/01/06 07:16:49;;;;;;;19.25;6.53;;;3.00;99.90;;;;;;5072648;28;20036;-67
2022/01/06 07:19:15;;;;;;;24.70;7.03;;;3.00;99.90;;;;;;5073685;28;20029;-68
2022/01/06 07:21:41;;;;;;;21.42;6.90;;;3.00;99.90;;;;;;5073612;28;20035;-67
2022/01/06 07:24:07;;;;;;;22.10;8.00;;;3.00;99.90;;;;;;5073634;28;20095;-67
2022/01/06 07:26:33;;;;;;;19.08;6.80;;;2.90;99.90;;;;;;5072497;28;20077;-67
2022/01/06 07:28:58;;;;;;;22.02;7.25;;;3.10;99.90;;;;;;5073651;28;20040;-68
2022/01/06 07:31:24;;;;;;;16.20;6.35;;;3.00;99.90;;;;;;5073555;28;20136;-67
2022/01/06 07:33:52;;;;;;;17.10;6.38;;;3.10;99.90;;;;;;5072731;28;20024;-68
2022/01/06 07:36:17;;;;;;;25.10;7.50;;;3.00;99.90;;;;;;5073554;28;20112;-67
2022/01/06 07:38:45;;;;;;;19.63;7.78;;;3.10;99.90;;;;;;5073424;28;20618;-67
2022/01/06 07:41:11;;;;;;;17.45;7.57;;;3.10;99.90;;;;;;5073576;28;20107;-68
2022/01/06 07:43:36;;;;;;;16.92;7.43;;;3.10;99.90;;;;;;5075975;28;20517;-68
2022/01/06 07:46:04;;;;;;;15.95;6.90;;;3.10;99.90;;;;;;5076912;28;20071;-68
2022/01/06 07:48:47;;;;;;;18.80;7.40;;;3.20;99.90;;;;;;5076241;28;20024;-68
2022/01/06 07:51:13;;;;;;;23.55;7.40;;;3.10;99.90;;;;;;5076876;28;20494;-68
2022/01/06 07:53:38;;;;;;;20.67;7.95;;;3.20;99.90;;;;;;5076855;28;20103;-68
2022/01/06 07:56:04;;;;;;;19.27;7.28;;;3.10;99.90;;;;;;5075821;28;20025;-67
2022/01/06 07:58:30;;;;;;;20.75;7.15;;;3.20;99.90;;;;;;5076806;28;20438;-68
2022/01/06 08:00:56;;;;;;;19.58;9.25;;;3.10;99.90;;;;;;5076492;28;20024;-67
2022/01/06 08:03:21;;;;;;;21.73;8.70;;;3.20;99.90;;;;;;5076553;28;20464;-67
2022/01/06 08:05:47;;;;;;;21.05;7.70;;;3.20;99.90;;;;;;5076521;28;20017;-68
2022/01/06 08:08:13;;;;;;;19.90;7.43;;;3.10;99.90;;;;;;5076656;28;20020;-68
2022/01/06 08:10:40;;;;;;;27.15;8.50;;;3.20;99.90;;;;;;5076476;28;20021;-67
2022/01/06 08:13:06;;;;;;;23.48;7.93;;;3.20;99.90;;;;;;5076394;28;20327;-67
2022/01/06 08:15:32;;;;;;;16.60;7.40;;;3.20;99.90;;;;;;5076479;28;20054;-68
2022/01/06 08:17:57;;;;;;;18.63;7.57;;;3.20;99.90;;;;;;5076392;28;20032;-68
2022/01/06 08:20:23;;;;;;;20.38;8.05;;;3.20;99.90;;;;;;5076326;28;20028;-67
2022/01/06 08:22:51;;;;;;;23.60;8.20;;;3.20;99.90;;;;;;5076403;28;20594;-68
2022/01/06 08:25:16;;;;;;;19.15;8.13;;;3.20;99.90;;;;;;5076179;28;20478;-68
2022/01/06 08:27:42;;;;;;;25.77;7.75;;;3.30;99.90;;;;;;5074989;28;20028;-67
2022/01/06 08:30:08;;;;;;;19.20;7.78;;;3.30;99.90;;;;;;5075084;28;20020;-68
2022/01/06 08:32:35;;;;;;;16.50;7.43;;;3.30;99.90;;;;;;5076035;28;20396;-68
2022/01/06 08:35:00;;;;;;;21.65;8.23;;;3.40;99.90;;;;;;5074934;28;20028;-67
2022/01/06 08:37:26;;;;;;;23.42;8.93;;;3.40;99.90;;;;;;5075978;28;20025;-66
2022/01/06 08:39:52;;;;;;;23.98;10.18;;;3.40;99.90;;;;;;5075868;28;20036;-67
2022/01/06 08:42:17;;;;;;;25.15;7.90;;;3.50;99.90;;;;;;5075938;28;20162;-68
2022/01/06 08:44:45;;;;;;;18.48;7.22;;;3.50;99.90;;;;;;5074797;28;20033;-67
2022/01/06 08:47:18;;;;;;;19.80;6.93;;;3.60;99.90;;;;;;5075633;28;20036;-68
2022/01/06 08:49:44;;;;;;;22.60;8.32;;;3.50;99.90;;;;;;5074617;28;20167;-68
2022/01/06 08:52:10;;;;;;;22.75;8.40;;;3.50;99.90;;;;;;5075210;28;20443;-67
2022/01/06 08:54:36;;;;;;;20.38;8.07;;;3.50;99.90;;;;;;5075584;28;20055;-68
2022/01/06 08:57:01;;;;;;;20.50;8.30;;;3.50;99.90;;;;;;5075521;28;20086;-67
2022/01/06 08:59:27;;;;;;;23.67;8.95;;;3.50;99.90;;;;;;5075359;28;20046;-67
2022/01/06 09:01:53;;;;;;;21.45;7.82;;;3.50;99.90;;;;;;5075423;28;20452;-68
2022/01/06 09:04:20;;;;;;;19.35;7.50;;;3.60;99.90;;;;;;5075373;28;20563;-68
2022/01/06 09:06:50;;;;;;;16.88;7.32;;;3.70;99.90;;;;;;5075334;28;20060;-68
2022/01/06 09:09:16;;;;;;;19.35;8.13;;;3.70;99.90;;;;;;5075237;28;20035;-68
2022/01/06 09:11:43;;;;;;;22.02;7.75;;;3.70;99.90;;;;;;5075267;28;20044;-68
2022/01/06 09:14:08;;;;;;;18.42;7.13;;;3.80;99.90;;;;;;5075140;28;20032;-68
2022/01/06 09:16:37;;;;;;;20.08;7.45;;;3.80;99.90;;;;;;5075078;28;20028;-67
2022/01/06 09:19:03;;;;;;;19.73;7.97;;;3.80;99.90;;;;;;5075181;28;20478;-68
2022/01/06 09:21:29;;;;;;;21.70;7.07;;;3.80;99.90;;;;;;5074004;28;20032;-67
2022/01/06 09:23:57;;;;;;;18.00;7.30;;;4.00;99.90;;;;;;5075014;28;20101;-68
2022/01/06 09:26:22;;;;;;;20.80;8.07;;;3.90;99.90;;;;;;5073806;28;20090;-67
2022/01/06 09:28:48;;;;;;;18.05;7.03;;;4.00;99.90;;;;;;5074746;28;20323;-67
2022/01/06 09:31:16;;;;;;;14.88;6.72;;;4.00;99.90;;;;;;5074257;28;20021;-67
2022/01/06 09:33:41;;;;;;;18.95;6.47;;;4.00;99.90;;;;;;5074331;28;20020;-68
2022/01/06 09:36:08;;;;;;;18.48;6.90;;;4.10;99.90;;;;;;5073755;28;20035;-67
2022/01/06 09:38:33;;;;;;;13.95;7.03;;;4.10;99.90;;;;;;5074737;28;20029;-67
2022/01/06 09:41:06;;;;;;;21.27;7.15;;;4.00;99.90;;;;;;5074587;28;20090;-67
2022/01/06 09:43:34;;;;;;;22.92;6.88;;;4.00;99.90;;;;;;5074503;28;20085;-68
2022/01/06 09:46:08;;;;;;;21.58;8.25;;;4.00;99.90;;;;;;5074571;28;20033;-67
2022/01/06 09:48:36;;;;;;;23.80;7.55;;;4.00;99.90;;;;;;5074835;28;20413;-67
2022/01/06 09:51:03;;;;;;;20.52;7.40;;;4.00;99.90;;;;;;5074515;28;20081;-68
2022/01/06 09:53:28;;;;;;;17.48;7.82;;;4.10;99.90;;;;;;5074537;28;20394;-67
2022/01/06 09:55:54;;;;;;;24.00;9.00;;;4.10;99.90;;;;;;5074359;28;20039;-66
2022/01/06 09:58:26;;;;;;;22.38;7.70;;;4.00;99.90;;;;;;5074450;28;20021;-67
2022/01/06 10:00:53;;;;;;;19.00;7.47;;;4.10;99.90;;;;;;5074316;28;20756;-67
2022/01/06 10:03:21;;;;;;;19.80;8.40;;;4.10;99.90;;;;;;5074300;28;20020;-68
2022/01/06 10:05:51;;;;;;;19.88;8.40;;;4.00;99.90;;;;;;5072706;28;20082;-67
2022/01/06 10:08:28;;;;;;;19.33;7.57;;;4.10;99.90;;;;;;5074349;28;20031;-67
2022/01/06 10:11:15;;;;;;;22.17;8.48;;;4.20;99.90;;;;;;5074329;28;20021;-68
2022/01/06 10:13:44;;;;;;;18.98;7.55;;;4.20;99.90;;;;;;5074263;28;20105;-68
2022/01/06 10:16:18;;;;;;;22.27;7.88;;;4.30;99.90;;;;;;5074265;28;20048;-68
2022/01/06 10:19:06;;;;;;;26.73;9.45;;;4.40;99.90;;;;;;5074146;28;20027;-64
2022/01/06 10:21:46;;;;;;;21.63;8.57;;;4.30;99.90;;;;;;5074267;28;20070;-66
2022/01/06 10:24:15;;;;;;;22.98;8.75;;;4.40;99.90;;;;;;5073876;28;20116;-61
2022/01/06 10:26:54;;;;;;;22.73;8.60;;;4.40;99.90;;;;;;5073871;28;20036;-61
2022/01/06 10:29:21;;;;;;;22.30;8.50;;;4.50;99.90;;;;;;5073970;28;20023;-61
2022/01/06 10:31:50;;;;;;;18.45;8.95;;;4.50;99.90;;;;;;5074000;28;20036;-62
2022/01/06 10:34:18;;;;;;;25.15;10.70;;;4.60;99.90;;;;;;5073923;28;20055;-61
2022/01/06 10:36:48;;;;;;;24.92;10.13;;;4.60;99.90;;;;;;5073869;28;20345;-61
2022/01/06 10:39:14;;;;;;;18.98;8.77;;;4.60;99.90;;;;;;5073726;28;20035;-62
2022/01/06 10:41:39;;;;;;;23.48;8.93;;;4.60;99.90;;;;;;5073721;28;20036;-62
2022/01/06 10:44:10;;;;;;;16.80;7.70;;;4.60;99.90;;;;;;5073747;28;20024;-62
2022/01/06 10:46:43;;;;;;;16.33;7.88;;;4.60;99.90;;;;;;5073686;28;20033;-62
2022/01/06 10:49:12;;;;;;;21.08;8.25;;;4.60;99.90;;;;;;5073749;28;20059;-62
2022/01/06 10:51:44;;;;;;;20.63;8.20;;;4.70;99.90;;;;;;5073690;28;20020;-62
2022/01/06 10:54:21;;;;;;;26.88;8.48;;;4.60;99.90;;;;;;5073709;28;20291;-62
2022/01/06 10:57:02;;;;;;;24.00;7.90;;;4.80;99.90;;;;;;5073747;28;20460;-62
2022/01/06 10:59:33;;;;;;;19.83;9.15;;;5.00;99.90;;;;;;5073623;28;20028;-62
2022/01/06 11:02:02;;;;;;;26.02;8.23;;;5.10;99.90;;;;;;5073169;28;20350;-62
2022/01/06 11:04:29;;;;;;;19.42;6.75;;;5.30;99.90;;;;;;5072456;28;20048;-62
2022/01/06 11:06:55;;;;;;;19.60;6.68;;;5.30;99.90;;;;;;5073574;28;20016;-63
2022/01/06 11:09:21;;;;;;;15.65;7.30;;;5.40;99.90;;;;;;5073558;28;20395;-62
2022/01/06 11:14:25;;;;;;;15.60;5.97;;;5.60;99.90;;;;;;5073417;28;20454;-67
2022/01/06 11:16:51;;;;;;;18.45;6.47;;;5.50;99.90;;;;;;5075390;28;20023;-65
2022/01/06 11:19:17;;;;;;;21.77;6.38;;;5.40;99.90;;;;;;5076930;28;20446;-64
2022/01/06 11:21:48;;;;;;;17.75;7.07;;;5.40;99.90;;;;;;5076679;28;20024;-63
2022/01/06 11:24:24;;;;;;;26.52;6.15;;;5.30;99.90;;;;;;5075833;28;20024;-69
2022/01/06 11:27:10;;;;;;;21.95;7.60;;;5.30;99.90;;;;;;5074782;28;20029;-66
2022/01/06 11:29:41;;;;;;;16.13;6.28;;;5.40;99.90;;;;;;5075481;28;20450;-62
2022/01/06 11:32:28;;;;;;;19.80;6.57;;;5.40;99.90;;;;;;5076702;28;20016;-62
2022/01/06 11:35:08;;;;;;;21.10;7.72;;;5.30;99.90;;;;;;5075224;28;20337;-62
2022/01/06 11:37:45;;;;;;;13.02;6.20;;;5.30;99.90;;;;;;5075036;28;20056;-61
2022/01/06 11:40:15;;;;;;;19.27;6.60;;;5.40;99.90;;;;;;5074734;28;20100;-61
2022/01/06 11:42:53;;;;;;;16.15;6.32;;;5.50;99.90;;;;;;5076523;28;20356;-63
2022/01/06 11:45:19;;;;;;;16.63;7.30;;;5.60;99.90;;;;;;5075969;28;20025;-62
2022/01/06 11:47:57;;;;;;;16.42;6.95;;;5.80;99.90;;;;;;5076058;28;20031;-63
2022/01/06 11:50:26;;;;;;;21.65;7.25;;;6.00;99.90;;;;;;5076157;28;20070;-63
2022/01/06 11:52:59;;;;;;;19.98;7.03;;;6.00;99.90;;;;;;5076388;28;20013;-63
2022/01/06 11:55:39;;;;;;;13.40;6.45;;;6.10;99.90;;;;;;5073453;28;20027;-63
2022/01/06 11:58:16;;;;;;;22.75;6.40;;;6.10;99.90;;;;;;5076318;28;20021;-63
2022/01/06 12:00:58;;;;;;;20.02;7.72;;;6.10;99.90;;;;;;5076140;28;20024;-63
2022/01/06 12:03:39;;;;;;;22.60;8.20;;;6.20;99.90;;;;;;5075997;28;20534;-62
2022/01/06 12:06:09;;;;;;;16.02;6.82;;;6.10;99.90;;;;;;5075192;28;20457;-63
2022/01/06 12:08:40;;;;;;;17.50;7.72;;;6.10;99.90;;;;;;5075285;28;20483;-62
2022/01/06 12:11:09;;;;;;;;;;;6.10;99.90;;;;;;5076784;28;20048;-62
2022/01/06 12:13:50;;;;;;;17.88;8.02;;;6.20;99.90;;;;;;5076071;28;19904;-63
2022/01/06 12:16:36;;;;;;;19.02;6.97;;;6.30;99.90;;;;;;5076363;28;20086;-62
2022/01/06 12:19:16;;;;;;;16.92;6.55;;;6.30;99.90;;;;;;5075240;28;20115;-62
2022/01/06 12:21:44;;;;;;;18.50;7.38;;;6.40;99.90;;;;;;5076299;28;20078;-62
2022/01/06 12:24:11;;;;;;;20.25;6.97;;;6.40;99.90;;;;;;5076115;28;20032;-62
2022/01/06 12:26:39;;;;;;;14.30;5.55;;;6.40;99.90;;;;;;5074937;28;20358;-62
2022/01/06 12:29:16;;;;;;;23.08;8.07;;;6.30;99.90;;;;;;5075499;28;20056;-62
2022/01/06 12:31:42;;;;;;;18.27;6.32;;;6.20;99.90;;;;;;5076102;28;20020;-63
2022/01/06 12:34:12;;;;;;;18.38;7.65;;;6.10;99.90;;;;;;5075893;28;20029;-62
2022/01/06 12:36:43;;;;;;;25.23;6.78;;;6.10;99.90;;;;;;5075948;28;20028;-63
2022/01/06 12:39:17;;;;;;;24.52;7.43;;;6.10;99.90;;;;;;5075864;28;20020;-63
2022/01/06 12:41:46;;;;;;;13.55;6.28;;;6.10;99.90;;;;;;5074747;28;20373;-63
2022/01/06 12:44:18;;;;;;;16.52;6.50;;;5.90;99.90;;;;;;5074600;28;20028;-63
2022/01/06 12:46:46;;;;;;;18.23;7.40;;;5.80;99.90;;;;;;5075448;28;20027;-62
2022/01/06 12:49:12;;;;;;;16.73;5.90;;;5.80;99.90;;;;;;5075541;28;20021;-62
2022/01/06 12:51:44;;;;;;;48.03;8.60;;;5.80;99.90;;;;;;5075530;28;20358;-63
2022/01/06 12:54:13;;;;;;;14.80;5.40;;;5.80;99.90;;;;;;5075497;28;20345;-63
2022/01/06 12:56:44;;;;;;;24.27;7.10;;;5.70;99.90;;;;;;5075713;28;20032;-63
2022/01/06 12:59:14;;;;;;;20.15;8.20;;;5.60;99.90;;;;;;5075414;28;20104;-63
2022/01/06 13:01:42;;;;;;;15.15;6.05;;;5.70;99.90;;;;;;5075491;28;20168;-63
2022/01/06 13:04:11;;;;;;;23.50;7.97;;;5.70;99.90;;;;;;5075355;28;20071;-63